Time;durP1;ratioP1;P1;durP2;ratioP2;P2;SDS_P1;SDS_P2;PMS_P1;PMS_P2;Temp;Humidity;BMP_temperature;BMP_pressure;BME280_temperature;BME280_humidity;BME280_pressure;Samples;Min_cycle;Max_cycle;Signal;HPM_P1;HPM_P2
2023/08/25 17:20:28;;;;;;;15.23;7.32;;;;;;;;;;5118423;22;20065;-74
2023/08/25 17:23:34;;;;;;;18.20;6.70;;;;;;;;;;5032403;28;20051;-76
2023/08/25 17:27:14;;;;;;;17.83;6.78;;;;;;;;;;5039656;28;20488;-78
2023/08/25 17:30:55;;;;;;;15.43;7.45;;;;;;;;;;5048183;28;20045;-81
2023/08/25 17:34:35;;;;;;;15.07;7.10;;;;;;;;;;5030628;28;20072;-78
2023/08/25 17:38:15;;;;;;;13.63;6.90;;;;;;;;;;5026529;28;20087;-74
2023/08/25 17:41:56;;;;;;;24.38;7.13;;;;;;;;;;5033878;28;20065;-69
2023/08/25 17:45:36;;;;;;;15.98;7.55;;;;;;;;;;5038655;28;20064;-77
2023/08/25 17:49:16;;;;;;;16.65;7.22;;;;;;;;;;5050919;28;20049;-79
2023/08/25 17:52:57;;;;;;;14.73;6.78;;;;;;;;;;5039389;28;20057;-71
2023/08/25 17:56:37;;;;;;;19.75;7.30;;;;;;;;;;5026363;28;20843;-66
2023/08/25 18:00:17;;;;;;;27.52;6.90;;;;;;;;;;5028401;28;20033;-73
2023/08/25 18:03:27;;;;;;;16.33;7.13;;;;;;;;;;5027278;28;20049;-72
2023/08/25 18:06:34;;;;;;;20.58;6.90;;;;;;;;;;5028018;28;20053;-73
2023/08/25 18:10:14;;;;;;;15.70;6.95;;;;;;;;;;5022422;28;20053;-72
2023/08/25 18:13:54;;;;;;;16.45;6.85;;;;;;;;;;5033082;28;20045;-68
2023/08/25 18:16:55;;;;;;;20.85;7.18;;;;;;;;;;5014061;28;20042;-72
2023/08/25 18:20:02;;;;;;;15.45;6.65;;;;;;;;;;5025077;28;20061;-70
2023/08/25 18:23:42;;;;;;;14.30;7.00;;;;;;;;;;5041150;28;20099;-71
2023/08/25 18:27:22;;;;;;;19.15;7.93;;;;;;;;;;5042008;28;20492;-70
2023/08/25 18:31:03;;;;;;;20.85;8.05;;;;;;;;;;5043781;28;20389;-70
2023/08/25 18:34:07;;;;;;;13.88;7.55;;;;;;;;;;5038136;28;20041;-69
2023/08/25 18:36:47;;;;;;;16.70;8.30;;;;;;;;;;5015366;28;20101;-72
2023/08/25 18:39:28;;;;;;;19.75;7.90;;;;;;;;;;5033071;28;20055;-72
2023/08/25 18:41:54;;;;;;;17.70;7.68;;;;;;;;;;5040453;28;20138;-74
2023/08/25 18:44:20;;;;;;;18.35;8.10;;;;;;;;;;5040150;28;20058;-74
2023/08/25 18:46:46;;;;;;;17.50;8.18;;;;;;;;;;5045490;28;20041;-75
2023/08/25 18:49:12;;;;;;;15.45;7.70;;;;;;;;;;5044549;28;20394;-73
2023/08/25 18:51:39;;;;;;;20.27;8.93;;;;;;;;;;5020064;28;20044;-74
2023/08/25 18:54:08;;;;;;;13.50;7.95;;;;;;;;;;5027707;28;20385;-74
2023/08/25 18:56:34;;;;;;;22.35;8.27;;;;;;;;;;5040248;28;20548;-73
2023/08/25 18:59:04;;;;;;;18.20;7.60;;;;;;;;;;5037575;28;20049;-72
2023/08/25 19:01:30;;;;;;;16.70;7.93;;;;;;;;;;5037607;28;20052;-71
2023/08/25 19:03:56;;;;;;;14.20;7.60;;;;;;;;;;5041067;28;20451;-71
2023/08/25 19:06:22;;;;;;;20.40;7.97;;;;;;;;;;5038564;28;20041;-71
2023/08/25 19:08:49;;;;;;;14.23;7.72;;;;;;;;;;5036665;28;20188;-72
2023/08/25 19:11:15;;;;;;;18.98;8.02;;;;;;;;;;5020984;28;20465;-71
2023/08/25 19:14:20;;;;;;;20.60;8.40;;;;;;;;;;5020908;28;20058;-71
2023/08/25 19:18:01;;;;;;;16.27;7.68;;;;;;;;;;5043073;28;20107;-69
2023/08/25 19:21:41;;;;;;;19.75;7.82;;;;;;;;;;5039084;28;20136;-72
2023/08/25 19:25:22;;;;;;;17.50;7.55;;;;;;;;;;5038791;28;20063;-71
2023/08/25 19:29:03;;;;;;;18.98;8.40;;;;;;;;;;5039858;28;20130;-75
2023/08/25 19:32:42;;;;;;;19.02;8.07;;;;;;;;;;5038440;28;20041;-71
2023/08/25 19:36:23;;;;;;;17.23;7.45;;;;;;;;;;5040951;28;20257;-70
2023/08/25 19:40:03;;;;;;;19.02;7.95;;;;;;;;;;5033233;28;20076;-72
2023/08/25 19:43:43;;;;;;;16.00;7.80;;;;;;;;;;5037370;28;20051;-72
2023/08/25 19:47:25;;;;;;;13.35;7.65;;;;;;;;;;5033759;28;20045;-69
2023/08/25 19:51:05;;;;;;;15.82;7.70;;;;;;;;;;5039153;28;20693;-71
2023/08/25 19:54:45;;;;;;;19.33;8.07;;;;;;;;;;5040314;28;20057;-70
2023/08/25 19:58:26;;;;;;;16.65;7.80;;;;;;;;;;5035652;28;20504;-71
2023/08/25 20:02:06;;;;;;;17.85;7.90;;;;;;;;;;5037717;28;20144;-70
2023/08/25 20:05:47;;;;;;;20.45;7.93;;;;;;;;;;5042464;28;20413;-70
2023/08/25 20:09:27;;;;;;;15.75;7.25;;;;;;;;;;5035875;28;20033;-74
2023/08/25 20:13:09;;;;;;;19.42;8.15;;;;;;;;;;5036143;28;20520;-72
2023/08/25 20:16:48;;;;;;;17.33;8.68;;;;;;;;;;5043969;28;20083;-73
2023/08/25 20:20:28;;;;;;;20.33;7.82;;;;;;;;;;5044891;28;20603;-73
2023/08/25 20:24:09;;;;;;;16.00;8.13;;;;;;;;;;5035744;28;20052;-70
2023/08/25 20:27:49;;;;;;;15.15;7.95;;;;;;;;;;5040992;28;20149;-70
2023/08/25 20:31:29;;;;;;;23.45;7.55;;;;;;;;;;5037879;28;20044;-70
2023/08/25 20:35:10;;;;;;;19.63;8.50;;;;;;;;;;5044283;28;20049;-73
2023/08/25 20:38:22;;;;;;;20.05;8.35;;;;;;;;;;5043125;28;20056;-69
2023/08/25 20:41:23;;;;;;;14.50;7.53;;;;;;;;;;5043727;28;20053;-70
2023/08/25 20:44:09;;;;;;;20.83;7.78;;;;;;;;;;5043662;28;20110;-70
2023/08/25 20:46:37;;;;;;;16.80;8.38;;;;;;;;;;5019256;28;20144;-67
2023/08/25 20:49:05;;;;;;;15.32;8.35;;;;;;;;;;5025426;28;20048;-67
2023/08/25 20:52:11;;;;;;;19.70;7.60;;;;;;;;;;5039630;28;20057;-68
2023/08/25 20:55:21;;;;;;;23.38;7.85;;;;;;;;;;5042843;28;20060;-70
2023/08/25 20:58:31;;;;;;;15.88;7.35;;;;;;;;;;5035642;28;20176;-68
2023/08/25 21:00:59;;;;;;;14.48;7.90;;;;;;;;;;5018667;28;20158;-67
2023/08/25 21:03:28;;;;;;;15.60;7.85;;;;;;;;;;5037930;28;20472;-67
2023/08/25 21:05:57;;;;;;;19.60;8.13;;;;;;;;;;5032908;28;20187;-67
2023/08/25 21:08:23;;;;;;;18.15;7.78;;;;;;;;;;5044946;28;20120;-67
2023/08/25 21:10:49;;;;;;;16.27;7.28;;;;;;;;;;5036988;28;20057;-68
2023/08/25 21:13:16;;;;;;;14.30;7.78;;;;;;;;;;5043276;28;20100;-67
2023/08/25 21:15:46;;;;;;;18.85;8.13;;;;;;;;;;5039553;28;20059;-68
2023/08/25 21:18:15;;;;;;;15.90;8.25;;;;;;;;;;5040042;28;20049;-69
2023/08/25 21:20:51;;;;;;;19.08;8.52;;;;;;;;;;5044305;28;20400;-69
2023/08/25 21:23:25;;;;;;;17.77;8.23;;;;;;;;;;5039419;28;20048;-69
2023/08/25 21:25:55;;;;;;;17.63;8.10;;;;;;;;;;5048408;28;20382;-67
2023/08/25 21:28:23;;;;;;;17.38;7.57;;;;;;;;;;5041452;28;20061;-68
2023/08/25 21:30:54;;;;;;;19.95;7.65;;;;;;;;;;5038944;28;20048;-69
2023/08/25 21:33:21;;;;;;;19.85;8.68;;;;;;;;;;5042702;28;20469;-67
2023/08/25 21:35:55;;;;;;;18.85;8.50;;;;;;;;;;5043856;28;20068;-71
2023/08/25 21:38:21;;;;;;;15.45;7.97;;;;;;;;;;5045562;28;20500;-71
2023/08/25 21:40:49;;;;;;;19.17;8.30;;;;;;;;;;5029514;28;20416;-69
2023/08/25 21:43:15;;;;;;;20.20;7.95;;;;;;;;;;5039457;28;20045;-67
2023/08/25 21:45:48;;;;;;;20.27;8.32;;;;;;;;;;5045543;28;20083;-70
2023/08/25 21:48:14;;;;;;;14.88;7.72;;;;;;;;;;5048960;28;20045;-70
2023/08/25 21:50:44;;;;;;;17.83;7.95;;;;;;;;;;5047560;28;20463;-69
2023/08/25 21:53:10;;;;;;;15.88;8.00;;;;;;;;;;5051923;28;20401;-71
2023/08/25 21:55:48;;;;;;;13.88;7.28;;;;;;;;;;5047462;28;20049;-71
2023/08/25 21:58:14;;;;;;;17.65;7.65;;;;;;;;;;5046908;28;20041;-72
2023/08/25 22:00:41;;;;;;;21.90;8.85;;;;;;;;;;5039949;28;20053;-68
2023/08/25 22:03:06;;;;;;;20.00;8.93;;;;;;;;;;5045382;28;20052;-70
2023/08/25 22:05:36;;;;;;;18.08;8.73;;;;;;;;;;5007823;28;20049;-70
2023/08/25 22:08:03;;;;;;;17.90;7.78;;;;;;;;;;5045282;28;20071;-68
2023/08/25 22:10:34;;;;;;;17.38;8.35;;;;;;;;;;5044308;28;20044;-68
2023/08/25 22:13:00;;;;;;;14.73;8.05;;;;;;;;;;5046809;28;20049;-68
2023/08/25 22:15:33;;;;;;;18.52;7.80;;;;;;;;;;5044136;28;20045;-67
2023/08/25 22:17:59;;;;;;;17.83;8.55;;;;;;;;;;5042500;28;20240;-71
2023/08/25 22:20:27;;;;;;;21.52;8.73;;;;;;;;;;5046398;28;20087;-67
2023/08/25 22:22:57;;;;;;;16.02;8.43;;;;;;;;;;5049638;28;20075;-68
2023/08/25 22:25:24;;;;;;;17.65;8.02;;;;;;;;;;5027237;28;20509;-68
2023/08/25 22:27:49;;;;;;;13.52;7.80;;;;;;;;;;5046305;28;20084;-68
2023/08/25 22:30:17;;;;;;;21.60;8.10;;;;;;;;;;5044509;28;20045;-69
2023/08/25 22:32:43;;;;;;;16.88;8.23;;;;;;;;;;5037773;28;20140;-68
2023/08/25 22:35:11;;;;;;;15.82;7.90;;;;;;;;;;5031472;28;20102;-68
2023/08/25 22:37:40;;;;;;;15.07;7.55;;;;;;;;;;5050590;28;20050;-69
2023/08/25 22:40:09;;;;;;;13.63;8.00;;;;;;;;;;5044964;28;20064;-68
2023/08/25 22:42:37;;;;;;;20.10;8.40;;;;;;;;;;5042454;28;20144;-71
2023/08/25 22:45:03;;;;;;;17.95;8.60;;;;;;;;;;5026029;28;20055;-69
2023/08/25 22:47:29;;;;;;;15.77;8.52;;;;;;;;;;5047006;28;20492;-70
2023/08/25 22:49:55;;;;;;;16.60;8.55;;;;;;;;;;5048623;28;20466;-71
2023/08/25 22:52:22;;;;;;;15.98;8.25;;;;;;;;;;5049233;28;20460;-70
2023/08/25 22:54:51;;;;;;;18.13;8.13;;;;;;;;;;5039873;28;20046;-70
2023/08/25 22:57:22;;;;;;;12.95;8.15;;;;;;;;;;5016930;28;20494;-69
2023/08/25 22:59:50;;;;;;;19.10;8.48;;;;;;;;;;5047265;28;20060;-71
2023/08/25 23:02:18;;;;;;;22.08;8.43;;;;;;;;;;5044340;28;20135;-70
2023/08/25 23:04:46;;;;;;;13.38;8.05;;;;;;;;;;5022589;28;20060;-68
2023/08/25 23:07:13;;;;;;;18.60;8.18;;;;;;;;;;5039695;28;20106;-68
2023/08/25 23:09:41;;;;;;;16.27;8.10;;;;;;;;;;5047790;28;20052;-69
2023/08/25 23:12:09;;;;;;;14.18;7.60;;;;;;;;;;5046906;28;20041;-68
2023/08/25 23:14:36;;;;;;;14.70;7.72;;;;;;;;;;5045957;28;20045;-69
2023/08/25 23:17:02;;;;;;;12.50;8.10;;;;;;;;;;5046998;28;20573;-68
2023/08/25 23:19:30;;;;;;;13.35;7.78;;;;;;;;;;5048147;28;20060;-70
2023/08/25 23:21:56;;;;;;;21.50;8.48;;;;;;;;;;5032111;28;20049;-71
2023/08/25 23:24:24;;;;;;;14.93;7.78;;;;;;;;;;5047441;28;20037;-68
2023/08/25 23:26:51;;;;;;;19.83;7.72;;;;;;;;;;5046153;28;20044;-68
2023/08/25 23:29:21;;;;;;;17.55;8.25;;;;;;;;;;5042307;28;20060;-70
2023/08/25 23:31:53;;;;;;;14.90;8.02;;;;;;;;;;5047401;28;20111;-68
2023/08/25 23:34:22;;;;;;;16.92;8.00;;;;;;;;;;5026781;28;20061;-69
2023/08/25 23:36:49;;;;;;;13.57;7.75;;;;;;;;;;5049679;28;20575;-69
2023/08/25 23:39:15;;;;;;;15.75;8.48;;;;;;;;;;5044862;28;20646;-66
2023/08/25 23:41:41;;;;;;;16.67;8.27;;;;;;;;;;5029597;28;20048;-68
2023/08/25 23:44:09;;;;;;;12.65;7.63;;;;;;;;;;5042433;28;20056;-68
2023/08/25 23:46:37;;;;;;;13.98;8.35;;;;;;;;;;5047492;28;20080;-68
2023/08/25 23:49:05;;;;;;;17.08;7.45;;;;;;;;;;5030093;28;20478;-68
2023/08/25 23:51:31;;;;;;;13.95;8.10;;;;;;;;;;5047672;28;20080;-70
2023/08/25 23:53:57;;;;;;;17.80;7.70;;;;;;;;;;5046362;28;20137;-68
2023/08/25 23:56:23;;;;;;;15.57;7.82;;;;;;;;;;5046024;28;20041;-68
2023/08/25 23:58:51;;;;;;;17.30;8.00;;;;;;;;;;5040058;28;20048;-67
